Taoxian Airport
ZYTX : now visible

Airfield :











YOU CAN JOIN US ON...

 
LOGIN :

Register | Disclaimer

   EN    FR    IT 

 









Legend :    VFR   Marginal VFR   IFR   Intensive IFR   Very Intensive IFR
Visi :
Ceiling :
>= 8 km
>= 3000ft
5 to 8 km
1000 to 3000 ft
1500m to 5 km
500 to 1000 ft
800 to 1500m
200 to 500 ft
< 800m
< 200 ft
Symbols :   Thunderstorms  Fog  Heavy snow  Heavy precipitations  Wind > 20 kt






- Airport Elevation : 198 ft
- IATA code : SHE


ZYTX - Taoxian

CURRENT METAR :
  • 251300Z 05002MPS CAVOK 16/12 Q1017 NOSIG

EXPIRED METARs :
  • 251230Z 03002MPS CAVOK 16/12 Q1017 NOSIG
  • 251200Z 05002MPS CAVOK 16/12 Q1017 NOSIG
  • 251130Z 07003MPS CAVOK 17/12 Q1017 NOSIG
  • 251100Z 03002MPS CAVOK 17/13 Q1016 NOSIG
  • 251030Z 01002MPS CAVOK 16/14 Q1016 NOSIG

TAF TAF ZYTX
Valid from the 25 at 12:00 until the 26 at 12:00 UTC


250903Z 2512/2612 02003MPS 6000 NSC TX25/2606Z TN14/2522Z
TEMPO 2521/2601 2500 BR
ZYSH FIR / Asia



MET'MAP, your aeronautical weather chart ! - Copyright ORBIFLY December 2007 - Disclaimer

ORBIFLY MET'MAP TEAM :

Programming & Development : Alexandra Zaïnal
Concept & original design : Baudouin d'Aumeries
Assistance for programming : Marc-Olivier Méhu
Technical & hardware support : Manuel Goepfert

Contact : metmap@orbifly.com




SOURCES & CREDITS :

   NOAA       Earth
Advisory